Terminal Aerodrome Forecast
Issued by NWS Wakefield, VA

Home | Current Version | Previous Version | Text Only | Print | Product List | Glossary On
Versions: 1 2 3 4 5 6 7 8 9 10 11 12 13 14 15
000
FTUS41 KAKQ 240158 AAA
TAFRIC
TAF AMD
KRIC 240158Z 2402/2424 15006KT P6SM SKC
     FM241300 19007KT P6SM SCT250
     FM241600 20013G20KT P6SM BKN150=

USA.gov is the U.S. government's official web portal to all federal, state and local government web resources and services.